sensor_id;sensor_type;location;lat;lon;timestamp;pressure;altitude;pressure_sealevel;temperature;humidity
9738;BME280;4908;47.446;13.900;2023-10-13T00:02:11;93212.81;;;11.34;100.00
9738;BME280;4908;47.446;13.900;2023-10-13T00:04:39;93214.28;;;11.28;100.00
9738;BME280;4908;47.446;13.900;2023-10-13T00:07:08;93208.91;;;11.25;100.00
9738;BME280;4908;47.446;13.900;2023-10-13T00:09:35;93208.84;;;11.14;100.00
9738;BME280;4908;47.446;13.900;2023-10-13T00:12:04;93211.44;;;11.04;100.00
9738;BME280;4908;47.446;13.900;2023-10-13T00:14:34;93211.09;;;11.05;100.00
9738;BME280;4908;47.446;13.900;2023-10-13T00:17:06;93208.06;;;11.14;100.00
9738;BME280;4908;47.446;13.900;2023-10-13T00:19:41;93214.06;;;10.93;100.00
9738;BME280;4908;47.446;13.900;2023-10-13T00:22:13;93202.16;;;10.87;100.00
9738;BME280;4908;47.446;13.900;2023-10-13T00:24:42;93202.81;;;10.77;100.00
9738;BME280;4908;47.446;13.900;2023-10-13T00:27:12;93209.22;;;10.62;100.00
9738;BME280;4908;47.446;13.900;2023-10-13T00:29:55;93200.81;;;10.67;100.00
9738;BME280;4908;47.446;13.900;2023-10-13T00:32:43;93204.53;;;10.52;100.00
9738;BME280;4908;47.446;13.900;2023-10-13T00:35:13;93202.94;;;10.47;100.00
9738;BME280;4908;47.446;13.900;2023-10-13T00:37:50;93209.72;;;10.34;100.00
9738;BME280;4908;47.446;13.900;2023-10-13T00:40:19;93217.53;;;10.50;100.00
9738;BME280;4908;47.446;13.900;2023-10-13T00:43:07;93213.56;;;10.33;100.00
9738;BME280;4908;47.446;13.900;2023-10-13T00:45:50;93211.91;;;10.22;100.00
9738;BME280;4908;47.446;13.900;2023-10-13T00:48:25;93213.19;;;10.02;100.00
9738;BME280;4908;47.446;13.900;2023-10-13T00:50:56;93213.19;;;10.02;100.00
9738;BME280;4908;47.446;13.900;2023-10-13T00:53:28;93213.94;;;9.99;100.00
9738;BME280;4908;47.446;13.900;2023-10-13T00:55:55;93208.59;;;9.99;100.00
9738;BME280;4908;47.446;13.900;2023-10-13T00:58:23;93212.09;;;10.06;100.00
9738;BME280;4908;47.446;13.900;2023-10-13T01:00:50;93205.66;;;10.11;100.00
9738;BME280;4908;47.446;13.900;2023-10-13T01:03:27;93197.94;;;10.06;100.00
9738;BME280;4908;47.446;13.900;2023-10-13T01:05:55;93192.44;;;9.91;100.00
9738;BME280;4908;47.446;13.900;2023-10-13T01:08:42;93192.34;;;9.81;100.00
9738;BME280;4908;47.446;13.900;2023-10-13T01:11:11;93198.41;;;9.78;100.00
9738;BME280;4908;47.446;13.900;2023-10-13T01:13:39;93189.94;;;9.72;100.00
9738;BME280;4908;47.446;13.900;2023-10-13T01:16:07;93201.25;;;9.59;100.00
9738;BME280;4908;47.446;13.900;2023-10-13T01:18:35;93198.19;;;9.60;100.00
9738;BME280;4908;47.446;13.900;2023-10-13T01:21:14;93191.47;;;9.40;100.00
9738;BME280;4908;47.446;13.900;2023-10-13T01:23:44;93184.97;;;9.41;100.00
9738;BME280;4908;47.446;13.900;2023-10-13T01:26:12;93195.84;;;9.55;100.00
9738;BME280;4908;47.446;13.900;2023-10-13T01:28:50;93188.78;;;9.40;100.00
9738;BME280;4908;47.446;13.900;2023-10-13T01:31:17;93185.41;;;9.17;100.00
9738;BME280;4908;47.446;13.900;2023-10-13T01:33:52;93193.22;;;8.99;100.00
9738;BME280;4908;47.446;13.900;2023-10-13T01:36:21;93190.78;;;8.91;100.00
9738;BME280;4908;47.446;13.900;2023-10-13T01:38:49;93192.72;;;8.94;100.00
9738;BME280;4908;47.446;13.900;2023-10-13T01:41:18;93185.41;;;9.17;100.00
9738;BME280;4908;47.446;13.900;2023-10-13T01:43:44;93192.94;;;9.08;100.00
9738;BME280;4908;47.446;13.900;2023-10-13T01:46:11;93189.75;;;8.99;100.00
9738;BME280;4908;47.446;13.900;2023-10-13T01:48:40;93197.25;;;9.16;100.00
9738;BME280;4908;47.446;13.900;2023-10-13T01:51:09;93198.22;;;9.04;100.00
9738;BME280;4908;47.446;13.900;2023-10-13T01:53:40;93203.88;;;8.73;100.00
9738;BME280;4908;47.446;13.900;2023-10-13T01:56:10;93207.41;;;8.55;100.00
9738;BME280;4908;47.446;13.900;2023-10-13T01:58:37;93212.84;;;8.62;100.00
9738;BME280;4908;47.446;13.900;2023-10-13T02:01:07;93205.50;;;8.55;100.00
9738;BME280;4908;47.446;13.900;2023-10-13T02:03:33;93206.78;;;8.65;100.00
9738;BME280;4908;47.446;13.900;2023-10-13T02:06:06;93211.53;;;8.75;100.00
9738;BME280;4908;47.446;13.900;2023-10-13T02:08:36;93208.38;;;8.69;100.00
9738;BME280;4908;47.446;13.900;2023-10-13T02:11:06;93208.66;;;8.87;100.00
9738;BME280;4908;47.446;13.900;2023-10-13T02:13:35;93206.31;;;8.82;100.00
9738;BME280;4908;47.446;13.900;2023-10-13T02:16:07;93210.72;;;8.97;100.00
9738;BME280;4908;47.446;13.900;2023-10-13T02:18:34;93204.16;;;8.91;100.00
9738;BME280;4908;47.446;13.900;2023-10-13T02:21:07;93212.28;;;9.01;100.00
9738;BME280;4908;47.446;13.900;2023-10-13T02:23:39;93214.91;;;8.98;100.00
9738;BME280;4908;47.446;13.900;2023-10-13T02:26:09;93207.88;;;8.86;100.00
9738;BME280;4908;47.446;13.900;2023-10-13T02:28:39;93204.06;;;8.84;100.00
9738;BME280;4908;47.446;13.900;2023-10-13T02:31:07;93204.69;;;8.77;100.00
9738;BME280;4908;47.446;13.900;2023-10-13T02:33:33;93201.63;;;8.75;100.00
9738;BME280;4908;47.446;13.900;2023-10-13T02:36:03;93201.63;;;8.75;100.00
9738;BME280;4908;47.446;13.900;2023-10-13T02:38:30;93200.44;;;8.73;100.00
9738;BME280;4908;47.446;13.900;2023-10-13T02:41:01;93198.53;;;8.73;100.00
9738;BME280;4908;47.446;13.900;2023-10-13T02:43:33;93195.78;;;8.66;100.00
9738;BME280;4908;47.446;13.900;2023-10-13T02:46:02;93195.50;;;8.49;100.00
9738;BME280;4908;47.446;13.900;2023-10-13T02:48:29;93196.06;;;8.61;100.00
9738;BME280;4908;47.446;13.900;2023-10-13T02:51:06;93191.41;;;8.55;100.00
9738;BME280;4908;47.446;13.900;2023-10-13T02:53:41;93193.44;;;8.65;100.00
9738;BME280;4908;47.446;13.900;2023-10-13T02:56:12;93195.94;;;8.54;100.00
9738;BME280;4908;47.446;13.900;2023-10-13T02:58:40;93200.47;;;8.50;100.00
9738;BME280;4908;47.446;13.900;2023-10-13T03:01:12;93201.09;;;8.44;100.00
9738;BME280;4908;47.446;13.900;2023-10-13T03:03:45;93198.03;;;8.42;100.00
9738;BME280;4908;47.446;13.900;2023-10-13T03:06:16;93205.75;;;8.47;100.00
9738;BME280;4908;47.446;13.900;2023-10-13T03:08:43;93209.44;;;8.39;100.00
9738;BME280;4908;47.446;13.900;2023-10-13T03:11:10;93210.06;;;8.32;100.00
9738;BME280;4908;47.446;13.900;2023-10-13T03:13:37;93197.41;;;8.26;100.00
9738;BME280;4908;47.446;13.900;2023-10-13T03:16:14;93201.50;;;8.23;100.00
9738;BME280;4908;47.446;13.900;2023-10-13T03:18:43;93206.00;;;8.19;100.00
9738;BME280;4908;47.446;13.900;2023-10-13T03:21:20;93205.41;;;8.26;100.00
9738;BME280;4908;47.446;13.900;2023-10-13T03:23:58;93206.69;;;8.16;100.00
9738;BME280;4908;47.446;13.900;2023-10-13T03:26:31;93204.94;;;8.24;100.00
9738;BME280;4908;47.446;13.900;2023-10-13T03:29:03;93198.50;;;8.25;100.00
9738;BME280;4908;47.446;13.900;2023-10-13T03:31:31;93203.66;;;8.14;100.00
9738;BME280;4908;47.446;13.900;2023-10-13T03:34:04;93203.75;;;7.98;100.00
9738;BME280;4908;47.446;13.900;2023-10-13T03:36:36;93202.16;;;8.16;100.00
9738;BME280;4908;47.446;13.900;2023-10-13T03:39:16;93205.69;;;8.01;100.00
9738;BME280;4908;47.446;13.900;2023-10-13T03:41:44;93205.81;;;8.08;100.00
9738;BME280;4908;47.446;13.900;2023-10-13T03:44:18;93203.75;;;8.21;100.00
9738;BME280;4908;47.446;13.900;2023-10-13T03:46:47;93205.13;;;8.11;100.00
9738;BME280;4908;47.446;13.900;2023-10-13T03:49:15;93200.47;;;8.08;100.00
9738;BME280;4908;47.446;13.900;2023-10-13T03:51:47;93208.78;;;8.03;100.00
9738;BME280;4908;47.446;13.900;2023-10-13T03:54:15;93200.78;;;8.03;100.00
9738;BME280;4908;47.446;13.900;2023-10-13T03:56:43;93220.31;;;7.88;100.00
9738;BME280;4908;47.446;13.900;2023-10-13T03:59:12;93220.66;;;7.87;100.00
9738;BME280;4908;47.446;13.900;2023-10-13T04:01:47;93212.72;;;7.90;100.00
9738;BME280;4908;47.446;13.900;2023-10-13T04:04:24;93222.25;;;7.91;100.00
9738;BME280;4908;47.446;13.900;2023-10-13T04:07:00;93213.06;;;7.89;100.00
9738;BME280;4908;47.446;13.900;2023-10-13T04:10:00;93222.25;;;7.91;100.00
9738;BME280;4908;47.446;13.900;2023-10-13T04:12:49;93217.31;;;8.12;100.00
9738;BME280;4908;47.446;13.900;2023-10-13T04:15:34;93220.97;;;8.04;100.00
9738;BME280;4908;47.446;13.900;2023-10-13T04:18:10;93226.06;;;7.90;100.00
9738;BME280;4908;47.446;13.900;2023-10-13T04:20:54;93228.31;;;7.88;100.00
9738;BME280;4908;47.446;13.900;2023-10-13T04:23:33;93232.81;;;7.84;100.00
9738;BME280;4908;47.446;13.900;2023-10-13T04:26:19;93229.56;;;7.75;100.00
9738;BME280;4908;47.446;13.900;2023-10-13T04:28:49;93232.03;;;7.84;100.00
9738;BME280;4908;47.446;13.900;2023-10-13T04:31:19;93226.25;;;8.01;100.00
9738;BME280;4908;47.446;13.900;2023-10-13T04:34:13;93219.44;;;8.03;100.00
9738;BME280;4908;47.446;13.900;2023-10-13T04:36:45;93220.72;;;7.90;100.00
9738;BME280;4908;47.446;13.900;2023-10-13T04:39:21;93214.16;;;8.07;100.00
9738;BME280;4908;47.446;13.900;2023-10-13T04:42:00;93208.34;;;8.01;100.00
9738;BME280;4908;47.446;13.900;2023-10-13T04:44:39;93201.88;;;8.02;100.00
9738;BME280;4908;47.446;13.900;2023-10-13T04:47:14;93205.75;;;8.05;100.00
9738;BME280;4908;47.446;13.900;2023-10-13T04:49:49;93206.63;;;8.12;100.00
9738;BME280;4908;47.446;13.900;2023-10-13T04:52:18;93196.44;;;8.18;100.00
9738;BME280;4908;47.446;13.900;2023-10-13T04:55:03;93199.75;;;8.31;100.00
9738;BME280;4908;47.446;13.900;2023-10-13T04:57:42;93200.72;;;8.23;100.00
9738;BME280;4908;47.446;13.900;2023-10-13T05:00:13;93210.38;;;8.08;100.00
9738;BME280;4908;47.446;13.900;2023-10-13T05:02:58;93214.31;;;7.95;100.00
9738;BME280;4908;47.446;13.900;2023-10-13T05:06:07;93208.38;;;7.82;100.00
9738;BME280;4908;47.446;13.900;2023-10-13T05:08:56;93215.13;;;7.76;100.00
9738;BME280;4908;47.446;13.900;2023-10-13T05:11:40;93217.31;;;7.71;100.00
9738;BME280;4908;47.446;13.900;2023-10-13T05:14:25;93215.63;;;7.44;100.00
9738;BME280;4908;47.446;13.900;2023-10-13T05:17:09;93217.94;;;7.26;100.00
9738;BME280;4908;47.446;13.900;2023-10-13T05:19:56;93225.88;;;7.07;100.00
9738;BME280;4908;47.446;13.900;2023-10-13T05:22:42;93215.44;;;7.17;100.00
9738;BME280;4908;47.446;13.900;2023-10-13T05:25:26;93225.06;;;7.22;100.00
9738;BME280;4908;47.446;13.900;2023-10-13T05:28:11;93225.50;;;7.24;100.00
9738;BME280;4908;47.446;13.900;2023-10-13T05:30:59;93234.88;;;7.37;100.00
9738;BME280;4908;47.446;13.900;2023-10-13T05:33:43;93245.13;;;7.35;100.00
9738;BME280;4908;47.446;13.900;2023-10-13T05:36:27;93248.91;;;7.34;100.00
9738;BME280;4908;47.446;13.900;2023-10-13T05:39:19;93265.19;;;7.48;100.00
9738;BME280;4908;47.446;13.900;2023-10-13T05:42:03;93262.41;;;7.60;100.00
9738;BME280;4908;47.446;13.900;2023-10-13T05:44:48;93265.59;;;7.50;100.00
9738;BME280;4908;47.446;13.900;2023-10-13T05:47:42;93280.47;;;7.32;100.00
9738;BME280;4908;47.446;13.900;2023-10-13T05:50:26;93285.25;;;7.42;100.00
9738;BME280;4908;47.446;13.900;2023-10-13T05:53:15;93281.31;;;7.36;100.00
9738;BME280;4908;47.446;13.900;2023-10-13T05:56:04;93280.53;;;7.36;100.00
9738;BME280;4908;47.446;13.900;2023-10-13T05:58:48;93291.97;;;7.36;100.00
9738;BME280;4908;47.446;13.900;2023-10-13T06:01:33;93292.41;;;7.38;100.00
9738;BME280;4908;47.446;13.900;2023-10-13T06:04:17;93291.25;;;7.39;100.00
9738;BME280;4908;47.446;13.900;2023-10-13T06:07:02;93290.84;;;7.37;100.00
9738;BME280;4908;47.446;13.900;2023-10-13T06:09:46;93297.03;;;7.41;100.00
9738;BME280;4908;47.446;13.900;2023-10-13T06:12:32;93301.63;;;7.44;100.00
9738;BME280;4908;47.446;13.900;2023-10-13T06:15:17;93297.59;;;7.50;100.00
9738;BME280;4908;47.446;13.900;2023-10-13T06:18:01;93297.75;;;7.57;100.00
9738;BME280;4908;47.446;13.900;2023-10-13T06:20:46;93294.81;;;7.81;100.00
9738;BME280;4908;47.446;13.900;2023-10-13T06:23:30;93296.78;;;7.84;100.00
9738;BME280;4908;47.446;13.900;2023-10-13T06:26:17;93292.28;;;8.07;100.00
9738;BME280;4908;47.446;13.900;2023-10-13T06:29:03;93289.06;;;8.18;100.00
9738;BME280;4908;47.446;13.900;2023-10-13T06:31:33;93290.16;;;8.36;100.00
9738;BME280;4908;47.446;13.900;2023-10-13T06:34:02;93282.66;;;8.41;100.00
9738;BME280;4908;47.446;13.900;2023-10-13T06:36:29;93283.84;;;8.44;100.00
9738;BME280;4908;47.446;13.900;2023-10-13T06:38:58;93285.03;;;8.46;100.00
9738;BME280;4908;47.446;13.900;2023-10-13T06:41:39;93279.47;;;8.55;100.00
9738;BME280;4908;47.446;13.900;2023-10-13T06:44:08;93283.72;;;8.59;100.00
9738;BME280;4908;47.446;13.900;2023-10-13T06:46:40;93292.63;;;8.67;100.00
9738;BME280;4908;47.446;13.900;2023-10-13T06:49:09;93290.84;;;8.74;100.00
9738;BME280;4908;47.446;13.900;2023-10-13T06:51:38;93291.44;;;8.87;100.00
9738;BME280;4908;47.446;13.900;2023-10-13T06:54:06;93293.53;;;8.97;100.00
9738;BME280;4908;47.446;13.900;2023-10-13T06:56:44;93286.75;;;9.03;100.00
9738;BME280;4908;47.446;13.900;2023-10-13T06:59:13;93289.88;;;9.09;100.00
9738;BME280;4908;47.446;13.900;2023-10-13T07:01:41;93285.06;;;9.18;100.00
9738;BME280;4908;47.446;13.900;2023-10-13T07:04:10;93299.28;;;9.25;100.00
9738;BME280;4908;47.446;13.900;2023-10-13T07:06:41;93297.16;;;9.34;100.00
9738;BME280;4908;47.446;13.900;2023-10-13T07:09:13;93294.53;;;9.38;100.00
9738;BME280;4908;47.446;13.900;2023-10-13T07:12:02;93293.53;;;9.49;100.00
9738;BME280;4908;47.446;13.900;2023-10-13T07:14:33;93291.38;;;9.58;100.00
9738;BME280;4908;47.446;13.900;2023-10-13T07:17:02;93297.72;;;9.76;100.00
9738;BME280;4908;47.446;13.900;2023-10-13T07:19:30;93292.56;;;9.90;100.00
9738;BME280;4908;47.446;13.900;2023-10-13T07:22:00;93293.88;;;10.04;100.00
9738;BME280;4908;47.446;13.900;2023-10-13T07:24:44;93293.47;;;10.31;100.00
9738;BME280;4908;47.446;13.900;2023-10-13T07:27:14;93288.50;;;10.33;100.00
9738;BME280;4908;47.446;13.900;2023-10-13T07:29:50;93288.22;;;10.45;100.00
9738;BME280;4908;47.446;13.900;2023-10-13T07:32:40;93280.19;;;10.45;100.00
9738;BME280;4908;47.446;13.900;2023-10-13T07:35:11;93288.91;;;10.72;100.00
9738;BME280;4908;47.446;13.900;2023-10-13T07:37:39;93289.22;;;10.67;100.00
9738;BME280;4908;47.446;13.900;2023-10-13T07:40:08;93282.13;;;10.85;100.00
9738;BME280;4908;47.446;13.900;2023-10-13T07:42:48;93285.84;;;10.73;100.00
9738;BME280;4908;47.446;13.900;2023-10-13T07:45:18;93287.53;;;10.92;100.00
9738;BME280;4908;47.446;13.900;2023-10-13T07:47:50;93279.16;;;10.97;100.00
9738;BME280;4908;47.446;13.900;2023-10-13T07:50:17;93282.25;;;10.99;100.00
9738;BME280;4908;47.446;13.900;2023-10-13T07:52:50;93283.88;;;11.11;100.00
9738;BME280;4908;47.446;13.900;2023-10-13T07:55:24;93281.66;;;11.23;100.00
9738;BME280;4908;47.446;13.900;2023-10-13T07:57:51;93273.28;;;11.28;100.00
9738;BME280;4908;47.446;13.900;2023-10-13T08:00:24;93274.09;;;11.36;100.00
9738;BME280;4908;47.446;13.900;2023-10-13T08:03:12;93275.66;;;11.40;100.00
9738;BME280;4908;47.446;13.900;2023-10-13T08:06:01;93270.34;;;11.47;100.00
9738;BME280;4908;47.446;13.900;2023-10-13T08:08:32;93267.50;;;11.81;100.00
9738;BME280;4908;47.446;13.900;2023-10-13T08:11:05;93269.81;;;11.86;100.00
9738;BME280;4908;47.446;13.900;2023-10-13T08:13:50;93262.91;;;11.85;100.00
9738;BME280;4908;47.446;13.900;2023-10-13T08:16:21;93258.78;;;12.05;100.00
9738;BME280;4908;47.446;13.900;2023-10-13T08:18:48;93254.63;;;12.18;100.00
9738;BME280;4908;47.446;13.900;2023-10-13T08:21:16;93256.19;;;12.26;100.00
9738;BME280;4908;47.446;13.900;2023-10-13T08:23:43;93253.94;;;12.52;100.00
9738;BME280;4908;47.446;13.900;2023-10-13T08:26:31;93243.97;;;12.53;100.00
9738;BME280;4908;47.446;13.900;2023-10-13T08:29:16;93248.59;;;12.74;100.00
9738;BME280;4908;47.446;13.900;2023-10-13T08:32:13;93256.28;;;12.79;100.00
9738;BME280;4908;47.446;13.900;2023-10-13T08:34:49;93243.22;;;12.95;100.00
9738;BME280;4908;47.446;13.900;2023-10-13T08:37:35;93243.66;;;13.07;100.00
9738;BME280;4908;47.446;13.900;2023-10-13T08:40:12;93246.34;;;13.28;100.00
9738;BME280;4908;47.446;13.900;2023-10-13T08:43:10;93234.41;;;13.36;100.00
9738;BME280;4908;47.446;13.900;2023-10-13T08:45:38;93239.41;;;13.41;100.00
9738;BME280;4908;47.446;13.900;2023-10-13T08:48:26;93235.50;;;13.60;100.00
9738;BME280;4908;47.446;13.900;2023-10-13T08:51:03;93231.66;;;13.72;100.00
9738;BME280;4908;47.446;13.900;2023-10-13T08:54:00;93231.56;;;13.89;100.00
9738;BME280;4908;47.446;13.900;2023-10-13T08:56:34;93226.59;;;13.95;100.00
9738;BME280;4908;47.446;13.900;2023-10-13T08:59:08;93227.28;;;14.09;100.00
9738;BME280;4908;47.446;13.900;2023-10-13T09:01:36;93230.69;;;14.31;100.00
9738;BME280;4908;47.446;13.900;2023-10-13T09:04:14;93222.94;;;14.36;100.00
9738;BME280;4908;47.446;13.900;2023-10-13T09:07:02;93221.03;;;14.37;100.00
9738;BME280;4908;47.446;13.900;2023-10-13T09:09:45;93214.34;;;14.63;100.00
9738;BME280;4908;47.446;13.900;2023-10-13T09:12:54;93211.94;;;14.72;100.00
9738;BME280;4908;47.446;13.900;2023-10-13T09:15:29;93218.88;;;14.76;100.00
9738;BME280;4908;47.446;13.900;2023-10-13T09:18:24;93210.66;;;14.90;100.00
9738;BME280;4908;47.446;13.900;2023-10-13T09:21:10;93209.31;;;15.12;100.00
9738;BME280;4908;47.446;13.900;2023-10-13T09:23:55;93213.09;;;15.22;100.00
9738;BME280;4908;47.446;13.900;2023-10-13T09:26:42;93208.31;;;15.44;100.00
9738;BME280;4908;47.446;13.900;2023-10-13T09:29:16;93201.28;;;15.53;100.00
9738;BME280;4908;47.446;13.900;2023-10-13T09:31:48;93195.00;;;15.63;100.00
9738;BME280;4908;47.446;13.900;2023-10-13T09:34:25;93194.03;;;15.80;100.00
9738;BME280;4908;47.446;13.900;2023-10-13T09:36:59;93183.13;;;15.91;100.00
9738;BME280;4908;47.446;13.900;2023-10-13T09:39:26;93187.63;;;16.01;100.00
9738;BME280;4908;47.446;13.900;2023-10-13T09:42:10;93184.31;;;16.20;100.00
9738;BME280;4908;47.446;13.900;2023-10-13T09:44:38;93186.09;;;16.30;100.00
9738;BME280;4908;47.446;13.900;2023-10-13T09:47:10;93185.44;;;16.53;100.00
9738;BME280;4908;47.446;13.900;2023-10-13T09:49:44;93181.69;;;16.43;100.00
9738;BME280;4908;47.446;13.900;2023-10-13T09:52:17;93175.16;;;16.67;100.00
9738;BME280;4908;47.446;13.900;2023-10-13T09:54:56;93175.44;;;16.76;100.00
9738;BME280;4908;47.446;13.900;2023-10-13T09:57:32;93167.84;;;16.91;100.00
9738;BME280;4908;47.446;13.900;2023-10-13T10:00:11;93170.81;;;17.00;100.00
9738;BME280;4908;47.446;13.900;2023-10-13T10:03:01;93165.06;;;17.18;100.00
9738;BME280;4908;47.446;13.900;2023-10-13T10:05:41;93160.91;;;17.36;100.00
9738;BME280;4908;47.446;13.900;2023-10-13T10:08:12;93153.53;;;17.60;100.00
9738;BME280;4908;47.446;13.900;2023-10-13T10:10:53;93161.94;;;17.65;100.00
9738;BME280;4908;47.446;13.900;2023-10-13T10:13:35;93164.94;;;17.71;100.00
9738;BME280;4908;47.446;13.900;2023-10-13T10:16:10;93162.44;;;17.80;100.00
9738;BME280;4908;47.446;13.900;2023-10-13T10:18:41;93155.94;;;17.97;100.00
9738;BME280;4908;47.446;13.900;2023-10-13T10:21:08;93146.25;;;17.96;100.00
9738;BME280;4908;47.446;13.900;2023-10-13T10:23:38;93145.28;;;18.06;98.88
9738;BME280;4908;47.446;13.900;2023-10-13T10:26:11;93144.13;;;18.23;89.97
9738;BME280;4908;47.446;13.900;2023-10-13T10:28:42;93146.47;;;18.41;75.35
9738;BME280;4908;47.446;13.900;2023-10-13T10:31:10;93141.53;;;18.55;82.13
9738;BME280;4908;47.446;13.900;2023-10-13T10:33:39;93133.41;;;18.71;80.08
9738;BME280;4908;47.446;13.900;2023-10-13T10:36:07;93129.16;;;18.70;82.41
9738;BME280;4908;47.446;13.900;2023-10-13T10:38:52;93128.91;;;18.97;90.72
9738;BME280;4908;47.446;13.900;2023-10-13T10:41:28;93135.38;;;19.19;87.17
9738;BME280;4908;47.446;13.900;2023-10-13T10:44:10;93129.16;;;19.19;91.67
9738;BME280;4908;47.446;13.900;2023-10-13T10:46:41;93118.09;;;19.26;95.04
9738;BME280;4908;47.446;13.900;2023-10-13T10:49:18;93118.66;;;19.37;95.47
9738;BME280;4908;47.446;13.900;2023-10-13T10:51:57;93111.22;;;19.53;97.76
9738;BME280;4908;47.446;13.900;2023-10-13T10:54:28;93103.38;;;19.84;92.96
9738;BME280;4908;47.446;13.900;2023-10-13T10:56:58;93106.31;;;19.90;95.21
9738;BME280;4908;47.446;13.900;2023-10-13T10:59:37;93098.41;;;19.95;95.08
9738;BME280;4908;47.446;13.900;2023-10-13T11:02:05;93097.13;;;20.12;94.32
9738;BME280;4908;47.446;13.900;2023-10-13T11:04:34;93091.72;;;20.25;92.64
9738;BME280;4908;47.446;13.900;2023-10-13T11:07:06;93084.69;;;20.40;89.83
9738;BME280;4908;47.446;13.900;2023-10-13T11:09:35;93078.06;;;20.53;91.79
9738;BME280;4908;47.446;13.900;2023-10-13T11:12:13;93074.22;;;20.38;94.95
9738;BME280;4908;47.446;13.900;2023-10-13T11:14:59;93071.63;;;20.47;94.63
9738;BME280;4908;47.446;13.900;2023-10-13T11:17:27;93072.06;;;20.71;93.38
9738;BME280;4908;47.446;13.900;2023-10-13T11:20:09;93063.97;;;20.80;92.02
9738;BME280;4908;47.446;13.900;2023-10-13T11:22:45;93063.53;;;20.94;94.39
9738;BME280;4908;47.446;13.900;2023-10-13T11:25:20;93054.47;;;21.10;91.02
9738;BME280;4908;47.446;13.900;2023-10-13T11:27:49;93052.31;;;21.39;88.87
9738;BME280;4908;47.446;13.900;2023-10-13T11:30:25;93049.31;;;21.46;85.58
9738;BME280;4908;47.446;13.900;2023-10-13T11:33:02;93040.19;;;21.62;87.07
9738;BME280;4908;47.446;13.900;2023-10-13T11:35:31;93036.84;;;21.79;85.69
9738;BME280;4908;47.446;13.900;2023-10-13T11:38:12;93035.88;;;22.16;80.98
9738;BME280;4908;47.446;13.900;2023-10-13T11:40:42;93028.69;;;22.41;80.34
9738;BME280;4908;47.446;13.900;2023-10-13T11:43:32;93017.28;;;22.73;74.55
9738;BME280;4908;47.446;13.900;2023-10-13T11:46:10;93018.84;;;22.83;68.20
9738;BME280;4908;47.446;13.900;2023-10-13T11:48:41;93015.38;;;23.00;69.06
9738;BME280;4908;47.446;13.900;2023-10-13T11:51:09;93013.09;;;23.26;58.26
9738;BME280;4908;47.446;13.900;2023-10-13T11:53:43;93004.31;;;23.13;58.78
9738;BME280;4908;47.446;13.900;2023-10-13T11:56:11;93001.91;;;23.60;62.03
9738;BME280;4908;47.446;13.900;2023-10-13T11:58:39;92996.09;;;23.67;50.75
9738;BME280;4908;47.446;13.900;2023-10-13T12:01:07;92992.94;;;23.51;52.01
9738;BME280;4908;47.446;13.900;2023-10-13T12:03:48;92990.84;;;24.15;51.44
9738;BME280;4908;47.446;13.900;2023-10-13T12:06:33;92981.53;;;24.63;47.80
9738;BME280;4908;47.446;13.900;2023-10-13T12:09:12;92971.31;;;25.34;46.19
9738;BME280;4908;47.446;13.900;2023-10-13T12:12:03;92967.91;;;25.77;42.77
9738;BME280;4908;47.446;13.900;2023-10-13T12:14:30;92970.47;;;26.25;41.84
9738;BME280;4908;47.446;13.900;2023-10-13T12:17:03;92967.78;;;27.34;39.73
9738;BME280;4908;47.446;13.900;2023-10-13T12:19:36;92961.28;;;28.03;35.18
9738;BME280;4908;47.446;13.900;2023-10-13T12:22:06;92954.13;;;29.33;34.28
9738;BME280;4908;47.446;13.900;2023-10-13T12:24:34;92947.84;;;31.59;28.54
9738;BME280;4908;47.446;13.900;2023-10-13T12:27:09;92946.50;;;31.03;27.92
9738;BME280;4908;47.446;13.900;2023-10-13T12:29:46;92948.00;;;33.07;27.47
9738;BME280;4908;47.446;13.900;2023-10-13T12:32:14;92942.31;;;35.64;24.10
9738;BME280;4908;47.446;13.900;2023-10-13T12:34:46;92941.75;;;36.80;20.05
9738;BME280;4908;47.446;13.900;2023-10-13T12:37:26;92944.19;;;37.04;19.61
9738;BME280;4908;47.446;13.900;2023-10-13T12:40:17;92945.78;;;37.20;18.57
9738;BME280;4908;47.446;13.900;2023-10-13T12:43:03;92940.72;;;37.75;18.48
9738;BME280;4908;47.446;13.900;2023-10-13T12:45:50;92929.28;;;39.50;17.83
9738;BME280;4908;47.446;13.900;2023-10-13T12:48:36;92933.72;;;39.76;16.45
9738;BME280;4908;47.446;13.900;2023-10-13T12:51:21;92916.25;;;40.40;16.99
9738;BME280;4908;47.446;13.900;2023-10-13T12:54:06;92921.75;;;41.87;15.82
9738;BME280;4908;47.446;13.900;2023-10-13T12:56:40;92914.44;;;42.02;15.02
9738;BME280;4908;47.446;13.900;2023-10-13T12:59:10;92906.16;;;40.29;14.87
9738;BME280;4908;47.446;13.900;2023-10-13T13:01:39;92903.53;;;39.29;16.15
9738;BME280;4908;47.446;13.900;2023-10-13T13:04:09;92902.94;;;40.33;16.12
9738;BME280;4908;47.446;13.900;2023-10-13T13:06:44;92894.97;;;41.28;15.28
9738;BME280;4908;47.446;13.900;2023-10-13T13:09:11;92898.41;;;41.60;14.47
9738;BME280;4908;47.446;13.900;2023-10-13T13:11:38;92886.75;;;40.80;14.15
9738;BME280;4908;47.446;13.900;2023-10-13T13:14:06;92878.25;;;39.99;16.28
9738;BME280;4908;47.446;13.900;2023-10-13T13:16:36;92880.75;;;41.01;15.18
9738;BME280;4908;47.446;13.900;2023-10-13T13:19:05;92881.44;;;41.68;15.29
9738;BME280;4908;47.446;13.900;2023-10-13T13:21:39;92873.38;;;42.42;14.21
9738;BME280;4908;47.446;13.900;2023-10-13T13:24:07;92874.00;;;42.50;14.12
9738;BME280;4908;47.446;13.900;2023-10-13T13:26:37;92874.34;;;42.37;14.63
9738;BME280;4908;47.446;13.900;2023-10-13T13:29:07;92863.72;;;41.41;14.68
9738;BME280;4908;47.446;13.900;2023-10-13T13:31:37;92858.81;;;41.41;15.43
9738;BME280;4908;47.446;13.900;2023-10-13T13:34:09;92851.00;;;40.98;15.22
9738;BME280;4908;47.446;13.900;2023-10-13T13:36:38;92847.22;;;39.97;16.47
9738;BME280;4908;47.446;13.900;2023-10-13T13:39:10;92843.69;;;39.89;16.14
9738;BME280;4908;47.446;13.900;2023-10-13T13:41:37;92836.53;;;39.48;17.20
9738;BME280;4908;47.446;13.900;2023-10-13T13:44:04;92836.31;;;35.90;18.78
9738;BME280;4908;47.446;13.900;2023-10-13T13:46:42;92836.91;;;35.16;20.53
9738;BME280;4908;47.446;13.900;2023-10-13T13:49:09;92827.41;;;36.54;19.02
9738;BME280;4908;47.446;13.900;2023-10-13T13:51:44;92830.84;;;37.24;19.49